sensor_id;sensor_type;location;lat;lon;timestamp;pressure;altitude;pressure_sealevel;temperature;humidity
44297;BME280;51842;47.450;8.654;2023-02-21T00:02:28;96026.03;;;2.33;98.84
44297;BME280;51842;47.450;8.654;2023-02-21T00:05:12;96027.66;;;2.34;98.88
44297;BME280;51842;47.450;8.654;2023-02-21T00:07:57;96019.34;;;2.30;97.27
44297;BME280;51842;47.450;8.654;2023-02-21T00:10:47;96021.75;;;2.25;97.54
44297;BME280;51842;47.450;8.654;2023-02-21T00:13:37;96018.13;;;2.19;98.50
44297;BME280;51842;47.450;8.654;2023-02-21T00:16:30;96012.69;;;2.21;98.77
44297;BME280;51842;47.450;8.654;2023-02-21T00:19:15;96018.34;;;2.18;97.79
44297;BME280;51842;47.450;8.654;2023-02-21T00:21:59;96021.97;;;2.23;98.92
44297;BME280;51842;47.450;8.654;2023-02-21T00:24:43;96020.56;;;2.21;97.24
44297;BME280;51842;47.450;8.654;2023-02-21T00:27:28;96007.81;;;2.11;97.31
44297;BME280;51842;47.450;8.654;2023-02-21T00:30:14;96001.13;;;2.08;97.75
44297;BME280;51842;47.450;8.654;2023-02-21T00:32:59;96004.16;;;2.05;98.03
44297;BME280;51842;47.450;8.654;2023-02-21T00:35:43;95988.00;;;2.02;97.38
44297;BME280;51842;47.450;8.654;2023-02-21T00:38:31;95989.59;;;1.96;96.77
44297;BME280;51842;47.450;8.654;2023-02-21T00:41:34;95990.38;;;1.83;97.40
44297;BME280;51842;47.450;8.654;2023-02-21T00:44:21;95983.53;;;1.82;99.19
44297;BME280;51842;47.450;8.654;2023-02-21T00:47:05;95978.88;;;1.91;98.80
44297;BME280;51842;47.450;8.654;2023-02-21T00:49:52;95985.34;;;1.89;97.67
44297;BME280;51842;47.450;8.654;2023-02-21T00:52:39;95978.84;;;1.78;98.40
44297;BME280;51842;47.450;8.654;2023-02-21T00:55:30;95981.69;;;1.70;98.61
44297;BME280;51842;47.450;8.654;2023-02-21T00:58:32;95979.47;;;1.73;100.00
44297;BME280;51842;47.450;8.654;2023-02-21T01:01:19;95979.66;;;1.78;99.57
44297;BME280;51842;47.450;8.654;2023-02-21T01:04:03;95980.06;;;1.75;98.29
44297;BME280;51842;47.450;8.654;2023-02-21T01:06:50;95975.19;;;1.66;97.96
44297;BME280;51842;47.450;8.654;2023-02-21T01:09:40;95979.00;;;1.56;99.43
44297;BME280;51842;47.450;8.654;2023-02-21T01:12:25;95978.81;;;1.58;99.54
44297;BME280;51842;47.450;8.654;2023-02-21T01:15:09;95981.06;;;1.61;99.58
44297;BME280;51842;47.450;8.654;2023-02-21T01:18:00;95979.63;;;1.65;98.43
44297;BME280;51842;47.450;8.654;2023-02-21T01:20:44;95986.09;;;1.56;97.56
44297;BME280;51842;47.450;8.654;2023-02-21T01:23:28;95982.22;;;1.45;98.16
44297;BME280;51842;47.450;8.654;2023-02-21T01:26:19;95974.50;;;1.37;98.13
44297;BME280;51842;47.450;8.654;2023-02-21T01:29:06;95973.28;;;1.26;99.18
44297;BME280;51842;47.450;8.654;2023-02-21T01:32:14;95970.25;;;1.29;100.00
44297;BME280;51842;47.450;8.654;2023-02-21T01:34:58;95960.97;;;1.33;99.21
44297;BME280;51842;47.450;8.654;2023-02-21T01:37:42;95956.13;;;1.30;99.40
44297;BME280;51842;47.450;8.654;2023-02-21T01:40:33;95957.94;;;1.30;98.91
44297;BME280;51842;47.450;8.654;2023-02-21T01:43:23;95953.09;;;1.27;98.79
44297;BME280;51842;47.450;8.654;2023-02-21T01:46:16;95961.75;;;1.21;99.76
44297;BME280;51842;47.450;8.654;2023-02-21T01:49:14;95946.38;;;1.18;100.00
44297;BME280;51842;47.450;8.654;2023-02-21T01:52:02;95947.59;;;1.15;100.00
44297;BME280;51842;47.450;8.654;2023-02-21T01:54:52;95951.00;;;1.15;100.00
44297;BME280;51842;47.450;8.654;2023-02-21T01:57:39;95953.63;;;1.15;99.44
44297;BME280;51842;47.450;8.654;2023-02-21T02:00:30;95952.81;;;1.08;99.90
44297;BME280;51842;47.450;8.654;2023-02-21T02:03:19;95959.66;;;1.09;100.00
44297;BME280;51842;47.450;8.654;2023-02-21T02:06:12;95955.41;;;1.02;100.00
44297;BME280;51842;47.450;8.654;2023-02-21T02:09:25;95959.44;;;0.98;100.00
44297;BME280;51842;47.450;8.654;2023-02-21T02:16:33;95959.53;;;0.76;100.00
44297;BME280;51842;47.450;8.654;2023-02-21T02:35:16;95956.66;;;0.36;100.00
44297;BME280;51842;47.450;8.654;2023-02-21T02:38:37;95959.88;;;0.32;100.00
44297;BME280;51842;47.450;8.654;2023-02-21T02:44:45;95947.09;;;0.22;100.00
44297;BME280;51842;47.450;8.654;2023-02-21T02:47:29;95952.72;;;0.19;100.00
44297;BME280;51842;47.450;8.654;2023-02-21T02:49:59;95962.19;;;0.20;100.00
44297;BME280;51842;47.450;8.654;2023-02-21T02:52:28;95950.91;;;0.19;100.00
44297;BME280;51842;47.450;8.654;2023-02-21T02:55:57;95947.41;;;0.12;100.00
44297;BME280;51842;47.450;8.654;2023-02-21T02:58:19;95947.19;;;0.07;100.00
44297;BME280;51842;47.450;8.654;2023-02-21T03:01:30;95946.94;;;0.02;100.00
44297;BME280;51842;47.450;8.654;2023-02-21T03:08:08;95950.19;;;0.04;100.00
44297;BME280;51842;47.450;8.654;2023-02-21T03:11:19;95950.34;;;0.03;100.00
44297;BME280;51842;47.450;8.654;2023-02-21T03:14:16;95954.63;;;0.04;100.00
44297;BME280;51842;47.450;8.654;2023-02-21T03:16:59;95948.94;;;0.00;100.00
44297;BME280;51842;47.450;8.654;2023-02-21T03:19:37;95946.50;;;-0.02;100.00
44297;BME280;51842;47.450;8.654;2023-02-21T03:22:14;95939.03;;;-0.05;100.00
44297;BME280;51842;47.450;8.654;2023-02-21T03:24:48;95941.84;;;-0.06;100.00
44297;BME280;51842;47.450;8.654;2023-02-21T03:27:22;95943.47;;;-0.05;100.00
44297;BME280;51842;47.450;8.654;2023-02-21T03:29:58;95942.03;;;-0.08;100.00
44297;BME280;51842;47.450;8.654;2023-02-21T03:32:53;95939.03;;;-0.05;100.00
44297;BME280;51842;47.450;8.654;2023-02-21T03:35:21;95938.84;;;-0.03;100.00
44297;BME280;51842;47.450;8.654;2023-02-21T03:37:51;95942.28;;;-0.03;100.00
44297;BME280;51842;47.450;8.654;2023-02-21T03:40:29;95945.06;;;-0.04;100.00
44297;BME280;51842;47.450;8.654;2023-02-21T03:43:03;95951.50;;;-0.07;100.00
44297;BME280;51842;47.450;8.654;2023-02-21T03:45:32;95944.63;;;-0.08;100.00
44297;BME280;51842;47.450;8.654;2023-02-21T03:47:59;95955.75;;;-0.06;100.00
44297;BME280;51842;47.450;8.654;2023-02-21T03:50:28;95950.25;;;-0.11;100.00
44297;BME280;51842;47.450;8.654;2023-02-21T03:52:57;95948.28;;;-0.09;100.00
44297;BME280;51842;47.450;8.654;2023-02-21T03:55:29;95956.13;;;-0.09;100.00
44297;BME280;51842;47.450;8.654;2023-02-21T03:57:56;95949.88;;;-0.08;100.00
44297;BME280;51842;47.450;8.654;2023-02-21T04:00:22;95947.25;;;-0.08;100.00
44297;BME280;51842;47.450;8.654;2023-02-21T04:02:51;95941.75;;;-0.13;100.00
44297;BME280;51842;47.450;8.654;2023-02-21T04:05:20;95937.75;;;-0.15;100.00
44297;BME280;51842;47.450;8.654;2023-02-21T04:07:45;95939.53;;;-0.16;100.00
44297;BME280;51842;47.450;8.654;2023-02-21T04:10:14;95940.75;;;-0.18;100.00
44297;BME280;51842;47.450;8.654;2023-02-21T04:12:40;95933.84;;;-0.19;100.00
44297;BME280;51842;47.450;8.654;2023-02-21T04:15:12;95938.13;;;-0.18;100.00
44297;BME280;51842;47.450;8.654;2023-02-21T04:17:40;95924.81;;;-0.17;100.00
44297;BME280;51842;47.450;8.654;2023-02-21T04:20:10;95933.69;;;-0.18;100.00
44297;BME280;51842;47.450;8.654;2023-02-21T04:22:36;95931.06;;;-0.18;100.00
44297;BME280;51842;47.450;8.654;2023-02-21T04:25:02;95932.94;;;-0.12;100.00
44297;BME280;51842;47.450;8.654;2023-02-21T04:27:34;95935.97;;;-0.08;100.00
44297;BME280;51842;47.450;8.654;2023-02-21T04:30:03;95933.78;;;-0.05;100.00
44297;BME280;51842;47.450;8.654;2023-02-21T04:32:29;95930.91;;;-0.10;100.00
44297;BME280;51842;47.450;8.654;2023-02-21T04:34:57;95935.72;;;-0.13;100.00
44297;BME280;51842;47.450;8.654;2023-02-21T04:37:24;95929.06;;;-0.16;100.00
44297;BME280;51842;47.450;8.654;2023-02-21T04:39:53;95930.44;;;-0.20;100.00
44297;BME280;51842;47.450;8.654;2023-02-21T04:42:28;95936.25;;;-0.25;100.00
44297;BME280;51842;47.450;8.654;2023-02-21T04:45:06;95931.56;;;-0.29;100.00
44297;BME280;51842;47.450;8.654;2023-02-21T04:47:32;95949.09;;;-0.30;100.00
44297;BME280;51842;47.450;8.654;2023-02-21T04:50:05;95940.00;;;-0.34;100.00
44297;BME280;51842;47.450;8.654;2023-02-21T04:52:31;95949.28;;;-0.31;100.00
44297;BME280;51842;47.450;8.654;2023-02-21T04:54:58;95937.38;;;-0.34;100.00
44297;BME280;51842;47.450;8.654;2023-02-21T04:57:30;95939.25;;;-0.28;100.00
44297;BME280;51842;47.450;8.654;2023-02-21T05:00:00;95939.28;;;-0.21;100.00
44297;BME280;51842;47.450;8.654;2023-02-21T05:02:27;95936.69;;;-0.21;100.00
44297;BME280;51842;47.450;8.654;2023-02-21T05:04:56;95945.09;;;-0.26;100.00
44297;BME280;51842;47.450;8.654;2023-02-21T05:07:22;95945.72;;;-0.24;100.00
44297;BME280;51842;47.450;8.654;2023-02-21T05:09:48;95941.50;;;-0.25;100.00
44297;BME280;51842;47.450;8.654;2023-02-21T05:12:17;95941.50;;;-0.25;100.00
44297;BME280;51842;47.450;8.654;2023-02-21T05:14:43;95935.03;;;-0.22;100.00
44297;BME280;51842;47.450;8.654;2023-02-21T05:17:09;95936.03;;;-0.23;100.00
44297;BME280;51842;47.450;8.654;2023-02-21T05:19:35;95928.03;;;-0.21;100.00
44297;BME280;51842;47.450;8.654;2023-02-21T05:22:02;95935.88;;;-0.21;100.00
44297;BME280;51842;47.450;8.654;2023-02-21T05:24:31;95929.63;;;-0.20;100.00
44297;BME280;51842;47.450;8.654;2023-02-21T05:27:00;95929.81;;;-0.22;100.00
44297;BME280;51842;47.450;8.654;2023-02-21T05:29:26;95927.13;;;-0.29;100.00
44297;BME280;51842;47.450;8.654;2023-02-21T05:31:52;95933.38;;;-0.30;100.00
44297;BME280;51842;47.450;8.654;2023-02-21T05:34:26;95936.75;;;-0.36;100.00
44297;BME280;51842;47.450;8.654;2023-02-21T05:36:52;95938.72;;;-0.38;100.00
44297;BME280;51842;47.450;8.654;2023-02-21T05:39:21;95940.38;;;-0.37;100.00
44297;BME280;51842;47.450;8.654;2023-02-21T05:41:48;95933.06;;;-0.41;100.00
44297;BME280;51842;47.450;8.654;2023-02-21T05:44:16;95943.09;;;-0.45;100.00
44297;BME280;51842;47.450;8.654;2023-02-21T05:46:42;95948.16;;;-0.43;100.00
44297;BME280;51842;47.450;8.654;2023-02-21T05:49:08;95944.16;;;-0.39;100.00
44297;BME280;51842;47.450;8.654;2023-02-21T05:51:41;95946.16;;;-0.41;100.00
44297;BME280;51842;47.450;8.654;2023-02-21T05:54:21;95939.94;;;-0.40;100.00
44297;BME280;51842;47.450;8.654;2023-02-21T05:56:50;95940.38;;;-0.37;100.00
44297;BME280;51842;47.450;8.654;2023-02-21T05:59:19;95943.34;;;-0.40;100.00
44297;BME280;51842;47.450;8.654;2023-02-21T06:01:48;95945.97;;;-0.40;100.00
44297;BME280;51842;47.450;8.654;2023-02-21T06:04:15;95940.53;;;-0.38;100.00
44297;BME280;51842;47.450;8.654;2023-02-21T06:06:43;95947.16;;;-0.42;100.00
44297;BME280;51842;47.450;8.654;2023-02-21T06:09:17;95943.91;;;-0.44;100.00
44297;BME280;51842;47.450;8.654;2023-02-21T06:11:44;95950.78;;;-0.43;100.00
44297;BME280;51842;47.450;8.654;2023-02-21T06:14:19;95947.97;;;-0.42;100.00
44297;BME280;51842;47.450;8.654;2023-02-21T06:16:46;95951.81;;;-0.38;100.00
44297;BME280;51842;47.450;8.654;2023-02-21T06:19:15;95950.47;;;-0.34;100.00
44297;BME280;51842;47.450;8.654;2023-02-21T06:21:44;95950.25;;;-0.32;100.00
44297;BME280;51842;47.450;8.654;2023-02-21T06:24:13;95958.91;;;-0.32;100.00
44297;BME280;51842;47.450;8.654;2023-02-21T06:26:42;95956.31;;;-0.32;100.00
44297;BME280;51842;47.450;8.654;2023-02-21T06:29:09;95955.31;;;-0.31;100.00
44297;BME280;51842;47.450;8.654;2023-02-21T06:31:35;95951.16;;;-0.25;100.00
44297;BME280;51842;47.450;8.654;2023-02-21T06:34:02;95953.63;;;-0.17;100.00
44297;BME280;51842;47.450;8.654;2023-02-21T06:36:29;95954.84;;;-0.13;100.00
44297;BME280;51842;47.450;8.654;2023-02-21T06:38:58;95956.50;;;-0.12;100.00
44297;BME280;51842;47.450;8.654;2023-02-21T06:41:30;95960.56;;;-0.09;100.00
44297;BME280;51842;47.450;8.654;2023-02-21T06:43:59;95963.72;;;-0.14;100.00
44297;BME280;51842;47.450;8.654;2023-02-21T06:46:29;95958.31;;;-0.12;100.00
44297;BME280;51842;47.450;8.654;2023-02-21T06:48:55;95963.34;;;-0.11;100.00
44297;BME280;51842;47.450;8.654;2023-02-21T06:51:22;95972.66;;;-0.08;100.00
44297;BME280;51842;47.450;8.654;2023-02-21T06:53:56;95972.91;;;-0.03;100.00
44297;BME280;51842;47.450;8.654;2023-02-21T06:56:23;95974.34;;;0.06;100.00
44297;BME280;51842;47.450;8.654;2023-02-21T06:58:48;95976.22;;;0.12;100.00
44297;BME280;51842;47.450;8.654;2023-02-21T07:01:14;95978.47;;;0.15;100.00
44297;BME280;51842;47.450;8.654;2023-02-21T07:03:41;95989.56;;;0.17;100.00
44297;BME280;51842;47.450;8.654;2023-02-21T07:06:15;95982.91;;;0.15;100.00
44297;BME280;51842;47.450;8.654;2023-02-21T07:08:43;95975.84;;;0.15;100.00
44297;BME280;51842;47.450;8.654;2023-02-21T07:11:11;95984.75;;;0.21;100.00
44297;BME280;51842;47.450;8.654;2023-02-21T07:13:37;95979.47;;;0.14;100.00
44297;BME280;51842;47.450;8.654;2023-02-21T07:16:04;95982.53;;;0.18;100.00
44297;BME280;51842;47.450;8.654;2023-02-21T07:18:31;95982.34;;;0.19;100.00
44297;BME280;51842;47.450;8.654;2023-02-21T07:20:57;95993.38;;;0.15;100.00
44297;BME280;51842;47.450;8.654;2023-02-21T07:23:23;95984.16;;;0.19;100.00
44297;BME280;51842;47.450;8.654;2023-02-21T07:25:49;95989.44;;;0.26;100.00
44297;BME280;51842;47.450;8.654;2023-02-21T07:28:16;95984.63;;;0.29;100.00
44297;BME280;51842;47.450;8.654;2023-02-21T07:30:42;95989.66;;;0.31;100.00
44297;BME280;51842;47.450;8.654;2023-02-21T07:33:08;95990.84;;;0.28;100.00
44297;BME280;51842;47.450;8.654;2023-02-21T07:35:39;95990.34;;;0.39;100.00
44297;BME280;51842;47.450;8.654;2023-02-21T07:38:05;95990.00;;;0.49;100.00
44297;BME280;51842;47.450;8.654;2023-02-21T07:40:32;95995.13;;;0.57;100.00
44297;BME280;51842;47.450;8.654;2023-02-21T07:42:57;95985.91;;;0.68;100.00
44297;BME280;51842;47.450;8.654;2023-02-21T07:45:23;95988.41;;;0.83;100.00
44297;BME280;51842;47.450;8.654;2023-02-21T07:47:52;95990.16;;;1.04;100.00
44297;BME280;51842;47.450;8.654;2023-02-21T07:50:18;95983.44;;;1.43;100.00
44297;BME280;51842;47.450;8.654;2023-02-21T07:52:45;95984.50;;;1.81;100.00
44297;BME280;51842;47.450;8.654;2023-02-21T07:55:17;95981.72;;;2.16;100.00
44297;BME280;51842;47.450;8.654;2023-02-21T07:57:44;95984.75;;;2.60;100.00
44297;BME280;51842;47.450;8.654;2023-02-21T08:00:14;95988.13;;;2.93;100.00
44297;BME280;51842;47.450;8.654;2023-02-21T08:02:47;95982.19;;;3.18;100.00
44297;BME280;51842;47.450;8.654;2023-02-21T08:05:16;95985.19;;;3.28;100.00
44297;BME280;51842;47.450;8.654;2023-02-21T08:07:48;95982.09;;;3.38;100.00
44297;BME280;51842;47.450;8.654;2023-02-21T08:10:23;95979.28;;;3.39;100.00
44297;BME280;51842;47.450;8.654;2023-02-21T08:12:58;95974.16;;;3.44;100.00
44297;BME280;51842;47.450;8.654;2023-02-21T08:15:30;95979.38;;;3.58;100.00
44297;BME280;51842;47.450;8.654;2023-02-21T08:17:59;95975.19;;;3.82;100.00
44297;BME280;51842;47.450;8.654;2023-02-21T08:20:25;95982.13;;;4.08;100.00
44297;BME280;51842;47.450;8.654;2023-02-21T08:22:51;95985.91;;;4.44;100.00
44297;BME280;51842;47.450;8.654;2023-02-21T08:25:17;95986.44;;;4.96;100.00
44297;BME280;51842;47.450;8.654;2023-02-21T08:27:55;95973.44;;;5.49;96.54
44297;BME280;51842;47.450;8.654;2023-02-21T08:30:21;95976.91;;;5.92;89.70
44297;BME280;51842;47.450;8.654;2023-02-21T08:32:47;95972.66;;;6.33;85.55
44297;BME280;51842;47.450;8.654;2023-02-21T08:35:19;95979.97;;;6.84;83.14
44297;BME280;51842;47.450;8.654;2023-02-21T08:37:48;95969.53;;;7.30;79.88
44297;BME280;51842;47.450;8.654;2023-02-21T08:40:18;95972.03;;;7.77;77.28
44297;BME280;51842;47.450;8.654;2023-02-21T08:42:50;95979.38;;;8.15;73.37
44297;BME280;51842;47.450;8.654;2023-02-21T08:45:21;95979.09;;;8.45;71.71
44297;BME280;51842;47.450;8.654;2023-02-21T08:47:49;95975.28;;;8.92;69.13
44297;BME280;51842;47.450;8.654;2023-02-21T08:50:18;95973.28;;;9.21;67.62
44297;BME280;51842;47.450;8.654;2023-02-21T08:52:55;95971.13;;;9.62;65.39
44297;BME280;51842;47.450;8.654;2023-02-21T08:55:22;95971.84;;;9.79;63.83
44297;BME280;51842;47.450;8.654;2023-02-21T08:57:52;95974.34;;;10.13;62.05
44297;BME280;51842;47.450;8.654;2023-02-21T09:00:23;95976.22;;;10.17;61.28
44297;BME280;51842;47.450;8.654;2023-02-21T09:02:50;95979.50;;;10.52;59.85
44297;BME280;51842;47.450;8.654;2023-02-21T09:05:26;95974.84;;;10.74;57.55
44297;BME280;51842;47.450;8.654;2023-02-21T09:08:00;95978.16;;;11.29;58.05
44297;BME280;51842;47.450;8.654;2023-02-21T09:10:31;95975.63;;;11.65;56.42
44297;BME280;51842;47.450;8.654;2023-02-21T09:13:02;95973.56;;;11.82;54.86
44297;BME280;51842;47.450;8.654;2023-02-21T09:15:29;95966.16;;;11.94;55.63
44297;BME280;51842;47.450;8.654;2023-02-21T09:18:04;95963.25;;;12.21;53.30
44297;BME280;51842;47.450;8.654;2023-02-21T09:20:31;95959.81;;;12.41;53.26
44297;BME280;51842;47.450;8.654;2023-02-21T09:22:57;95950.72;;;12.73;52.17
44297;BME280;51842;47.450;8.654;2023-02-21T09:25:27;95959.78;;;12.98;50.35
44297;BME280;51842;47.450;8.654;2023-02-21T09:27:53;95949.81;;;13.24;48.60
44297;BME280;51842;47.450;8.654;2023-02-21T09:30:25;95949.78;;;13.39;48.19
44297;BME280;51842;47.450;8.654;2023-02-21T09:32:51;95949.69;;;13.59;48.82
44297;BME280;51842;47.450;8.654;2023-02-21T09:35:18;95942.22;;;13.61;48.52
44297;BME280;51842;47.450;8.654;2023-02-21T09:37:45;95939.34;;;13.97;46.95
44297;BME280;51842;47.450;8.654;2023-02-21T09:40:50;95939.22;;;14.18;46.71
44297;BME280;51842;47.450;8.654;2023-02-21T09:44:04;95941.94;;;14.52;46.36
44297;BME280;51842;47.450;8.654;2023-02-21T09:46:39;95934.59;;;14.63;46.06
44297;BME280;51842;47.450;8.654;2023-02-21T09:49:39;95931.19;;;14.86;45.34
44297;BME280;51842;47.450;8.654;2023-02-21T09:52:37;95931.69;;;14.88;45.39
44297;BME280;51842;47.450;8.654;2023-02-21T09:55:30;95927.50;;;15.30;44.65
44297;BME280;51842;47.450;8.654;2023-02-21T09:58:02;95925.53;;;15.60;43.87
44297;BME280;51842;47.450;8.654;2023-02-21T10:00:35;95919.47;;;15.73;43.23
44297;BME280;51842;47.450;8.654;2023-02-21T10:06:58;95924.44;;;16.04;44.09
44297;BME280;51842;47.450;8.654;2023-02-21T10:12:36;95927.28;;;15.93;43.06
44297;BME280;51842;47.450;8.654;2023-02-21T10:18:46;95907.75;;;16.77;41.38
44297;BME280;51842;47.450;8.654;2023-02-21T10:21:31;95910.44;;;16.91;41.76
44297;BME280;51842;47.450;8.654;2023-02-21T10:24:14;95910.56;;;17.14;40.78
44297;BME280;51842;47.450;8.654;2023-02-21T10:27:03;95903.22;;;17.33;40.02
44297;BME280;51842;47.450;8.654;2023-02-21T10:32:23;95899.69;;;17.60;39.54
44297;BME280;51842;47.450;8.654;2023-02-21T10:34:56;95894.59;;;17.72;39.61
44297;BME280;51842;47.450;8.654;2023-02-21T10:37:56;95891.06;;;17.99;39.52
44297;BME280;51842;47.450;8.654;2023-02-21T10:40:44;95899.09;;;18.13;38.84
44297;BME280;51842;47.450;8.654;2023-02-21T10:43:48;95902.06;;;17.75;38.85
44297;BME280;51842;47.450;8.654;2023-02-21T10:46:33;95893.47;;;17.73;39.49
44297;BME280;51842;47.450;8.654;2023-02-21T10:49:24;95894.56;;;18.22;38.46
44297;BME280;51842;47.450;8.654;2023-02-21T10:52:18;95894.41;;;18.41;38.50
44297;BME280;51842;47.450;8.654;2023-02-21T10:55:22;95889.59;;;18.83;37.10
44297;BME280;51842;47.450;8.654;2023-02-21T10:58:16;95879.84;;;18.96;37.10
44297;BME280;51842;47.450;8.654;2023-02-21T11:00:46;95875.09;;;19.02;36.33
44297;BME280;51842;47.450;8.654;2023-02-21T11:03:23;95872.50;;;18.88;36.92
44297;BME280;51842;47.450;8.654;2023-02-21T11:05:59;95871.31;;;18.80;36.78
44297;BME280;51842;47.450;8.654;2023-02-21T11:08:43;95861.53;;;18.84;36.68
44297;BME280;51842;47.450;8.654;2023-02-21T11:11:15;95854.84;;;19.22;35.99
44297;BME280;51842;47.450;8.654;2023-02-21T11:14:23;95848.47;;;19.17;36.23
44297;BME280;51842;47.450;8.654;2023-02-21T11:17:10;95847.25;;;19.32;36.13
44297;BME280;51842;47.450;8.654;2023-02-21T11:20:19;95843.66;;;19.63;35.71
44297;BME280;51842;47.450;8.654;2023-02-21T11:22:58;95837.97;;;19.99;35.73
44297;BME280;51842;47.450;8.654;2023-02-21T11:25:30;95831.75;;;20.33;34.87
44297;BME280;51842;47.450;8.654;2023-02-21T11:34:03;95823.16;;;20.58;33.68
44297;BME280;51842;47.450;8.654;2023-02-21T11:36:41;95817.63;;;20.84;33.09
44297;BME280;51842;47.450;8.654;2023-02-21T11:39:33;95802.78;;;20.98;32.38
44297;BME280;51842;47.450;8.654;2023-02-21T11:42:04;95803.69;;;21.02;32.53
44297;BME280;51842;47.450;8.654;2023-02-21T11:45:23;95800.97;;;21.11;32.40
44297;BME280;51842;47.450;8.654;2023-02-21T11:48:16;95792.09;;;21.40;32.87
44297;BME280;51842;47.450;8.654;2023-02-21T11:50:52;95783.94;;;21.61;32.07
44297;BME280;51842;47.450;8.654;2023-02-21T11:53:46;95776.00;;;21.98;30.85
44297;BME280;51842;47.450;8.654;2023-02-21T11:57:12;95769.38;;;22.29;30.39
44297;BME280;51842;47.450;8.654;2023-02-21T12:00:42;95762.66;;;22.59;29.39
44297;BME280;51842;47.450;8.654;2023-02-21T12:16:15;95719.56;;;21.79;30.20
44297;BME280;51842;47.450;8.654;2023-02-21T12:44:23;95683.13;;;22.83;29.26
44297;BME280;51842;47.450;8.654;2023-02-21T12:47:27;95676.34;;;22.65;29.76
44297;BME280;51842;47.450;8.654;2023-02-21T12:50:15;95672.47;;;22.91;29.92
44297;BME280;51842;47.450;8.654;2023-02-21T12:57:01;95657.44;;;23.05;29.67
44297;BME280;51842;47.450;8.654;2023-02-21T12:59:48;95654.72;;;22.81;30.42
44297;BME280;51842;47.450;8.654;2023-02-21T13:06:17;95634.81;;;22.89;30.95
44297;BME280;51842;47.450;8.654;2023-02-21T13:12:27;95632.31;;;22.96;31.19
44297;BME280;51842;47.450;8.654;2023-02-21T13:15:21;95634.63;;;22.94;31.29
44297;BME280;51842;47.450;8.654;2023-02-21T13:18:52;95617.97;;;22.47;32.82
44297;BME280;51842;47.450;8.654;2023-02-21T13:28:32;95605.53;;;21.63;32.42
44297;BME280;51842;47.450;8.654;2023-02-21T13:31:17;95599.84;;;22.02;33.03
44297;BME280;51842;47.450;8.654;2023-02-21T13:33:53;95597.94;;;22.02;32.53
44297;BME280;51842;47.450;8.654;2023-02-21T13:39:21;95586.63;;;21.88;33.41
44297;BME280;51842;47.450;8.654;2023-02-21T13:42:14;95580.31;;;21.51;33.15
44297;BME280;51842;47.450;8.654;2023-02-21T13:45:37;95568.94;;;21.57;34.39
44297;BME280;51842;47.450;8.654;2023-02-21T13:48:35;95573.28;;;21.16;34.52
44297;BME280;51842;47.450;8.654;2023-02-21T13:51:00;95562.22;;;20.88;34.56
44297;BME280;51842;47.450;8.654;2023-02-21T13:54:21;95560.22;;;20.97;34.84
44297;BME280;51842;47.450;8.654;2023-02-21T13:56:48;95554.00;;;20.55;34.42
44297;BME280;51842;47.450;8.654;2023-02-21T13:59:36;95549.13;;;20.69;35.68
44297;BME280;51842;47.450;8.654;2023-02-21T14:02:28;95557.84;;;20.96;34.74
44297;BME280;51842;47.450;8.654;2023-02-21T14:05:06;95556.59;;;20.93;34.74
44297;BME280;51842;47.450;8.654;2023-02-21T14:11:10;95546.28;;;20.87;34.98
44297;BME280;51842;47.450;8.654;2023-02-21T14:14:04;95551.44;;;21.00;35.47
44297;BME280;51842;47.450;8.654;2023-02-21T14:17:01;95543.16;;;21.18;35.04
44297;BME280;51842;47.450;8.654;2023-02-21T14:19:48;95535.25;;;21.13;35.13
44297;BME280;51842;47.450;8.654;2023-02-21T14:22:33;95534.34;;;21.42;34.55
44297;BME280;51842;47.450;8.654;2023-02-21T14:25:24;95530.09;;;21.53;34.64
44297;BME280;51842;47.450;8.654;2023-02-21T14:27:51;95527.63;;;21.73;34.11
44297;BME280;51842;47.450;8.654;2023-02-21T14:30:33;95521.66;;;21.91;33.79
44297;BME280;51842;47.450;8.654;2023-02-21T14:33:25;95514.53;;;21.87;34.63
44297;BME280;51842;47.450;8.654;2023-02-21T14:36:06;95511.91;;;21.54;34.52
44297;BME280;51842;47.450;8.654;2023-02-21T14:38:42;95506.06;;;20.97;35.18
44297;BME280;51842;47.450;8.654;2023-02-21T14:41:25;95514.53;;;21.29;35.19
44297;BME280;51842;47.450;8.654;2023-02-21T14:45:17;95506.81;;;21.52;34.22
44297;BME280;51842;47.450;8.654;2023-02-21T15:04:25;95475.66;;;21.13;33.82
44297;BME280;51842;47.450;8.654;2023-02-21T15:10:40;95481.91;;;20.92;34.49
44297;BME280;51842;47.450;8.654;2023-02-21T15:13:28;95477.75;;;20.95;34.55
44297;BME280;51842;47.450;8.654;2023-02-21T15:16:15;95473.16;;;21.08;34.17
44297;BME280;51842;47.450;8.654;2023-02-21T15:19:00;95472.38;;;21.07;34.18
44297;BME280;51842;47.450;8.654;2023-02-21T15:21:29;95475.69;;;21.25;33.10
44297;BME280;51842;47.450;8.654;2023-02-21T15:24:14;95468.81;;;21.27;32.84
44297;BME280;51842;47.450;8.654;2023-02-21T15:26:43;95474.41;;;21.10;33.01
44297;BME280;51842;47.450;8.654;2023-02-21T15:29:20;95464.56;;;20.93;32.78
44297;BME280;51842;47.450;8.654;2023-02-21T15:31:54;95460.00;;;20.85;32.68
44297;BME280;51842;47.450;8.654;2023-02-21T15:34:36;95463.69;;;20.39;34.08
44297;BME280;51842;47.450;8.654;2023-02-21T15:37:26;95457.03;;;20.36;33.88
44297;BME280;51842;47.450;8.654;2023-02-21T15:40:02;95454.13;;;20.20;34.08
44297;BME280;51842;47.450;8.654;2023-02-21T15:42:41;95456.69;;;20.17;34.55
44297;BME280;51842;47.450;8.654;2023-02-21T15:45:45;95438.75;;;19.91;35.27
44297;BME280;51842;47.450;8.654;2023-02-21T15:48:15;95445.75;;;19.45;35.99
44297;BME280;51842;47.450;8.654;2023-02-21T15:50:45;95446.53;;;19.07;36.37
44297;BME280;51842;47.450;8.654;2023-02-21T15:53:23;95444.84;;;18.68;37.03
44297;BME280;51842;47.450;8.654;2023-02-21T15:55:52;95443.59;;;18.31;37.64
44297;BME280;51842;47.450;8.654;2023-02-21T15:58:25;95450.50;;;17.88;38.31
44297;BME280;51842;47.450;8.654;2023-02-21T16:01:10;95440.38;;;17.54;38.70
44297;BME280;51842;47.450;8.654;2023-02-21T16:03:42;95452.69;;;17.38;39.21
44297;BME280;51842;47.450;8.654;2023-02-21T16:06:29;95440.31;;;16.97;39.66
44297;BME280;51842;47.450;8.654;2023-02-21T16:14:47;95442.09;;;16.20;41.88
44297;BME280;51842;47.450;8.654;2023-02-21T16:17:38;95439.19;;;15.94;42.94